createdAt,value
2018-02-21T00:01:06.129Z,73.20
2018-02-21T00:03:33.686Z,73.80
2018-02-21T00:06:01.253Z,73.70
2018-02-21T00:08:28.794Z,73.40
2018-02-21T00:10:56.364Z,73.70
2018-02-21T00:13:23.924Z,73.50
2018-02-21T00:15:52.584Z,73.50
2018-02-21T00:18:20.128Z,73.50
2018-02-21T00:20:48.426Z,73.50
2018-02-21T00:23:17.913Z,73.50
2018-02-21T00:25:45.940Z,73.30
2018-02-21T00:28:13.533Z,73.40
2018-02-21T00:30:41.084Z,73.00
2018-02-21T00:33:08.658Z,73.20
2018-02-21T00:35:36.963Z,72.70
2018-02-21T00:38:04.556Z,72.80
2018-02-21T00:40:32.101Z,72.90
2018-02-21T00:42:59.634Z,72.90
2018-02-21T00:45:27.203Z,73.20
2018-02-21T00:47:54.755Z,73.30
2018-02-21T00:50:22.326Z,73.10
2018-02-21T00:52:49.876Z,72.90
2018-02-21T00:55:18.017Z,72.80
2018-02-21T00:57:46.884Z,72.60
2018-02-21T01:00:14.488Z,72.30
2018-02-21T01:02:42.820Z,72.00
2018-02-21T01:05:10.398Z,72.00
2018-02-21T01:07:38.700Z,71.80
2018-02-21T01:10:06.680Z,72.00
2018-02-21T01:12:34.261Z,71.90
2018-02-21T01:15:02.570Z,72.00
2018-02-21T01:17:30.169Z,71.90
2018-02-21T01:19:58.790Z,72.30
2018-02-21T01:22:26.342Z,73.00
2018-02-21T01:24:53.913Z,73.50
2018-02-21T01:27:22.219Z,73.50
2018-02-21T01:29:49.805Z,73.50
2018-02-21T01:32:18.380Z,73.40
2018-02-21T01:34:47.330Z,74.00
2018-02-21T01:37:16.404Z,74.00
2018-02-21T01:39:43.962Z,73.70
2018-02-21T01:42:11.483Z,74.20
2018-02-21T01:44:39.066Z,74.60
2018-02-21T01:47:06.621Z,75.00
2018-02-21T01:49:34.941Z,74.20
2018-02-21T01:52:02.476Z,74.20
2018-02-21T01:54:30.052Z,74.20
2018-02-21T01:56:57.620Z,74.50
2018-02-21T01:59:25.972Z,74.70
2018-02-21T02:01:53.507Z,74.70
2018-02-21T02:04:21.067Z,74.10
2018-02-21T02:06:49.406Z,74.30
2018-02-21T02:09:17.779Z,74.30
2018-02-21T02:11:47.125Z,74.30
2018-02-21T02:14:14.675Z,74.30
2018-02-21T02:16:42.260Z,74.20
2018-02-21T02:19:10.563Z,74.50
2018-02-21T02:21:38.126Z,74.40
2018-02-21T02:24:05.808Z,74.30
2018-02-21T02:26:33.428Z,75.00
2018-02-21T02:29:00.958Z,75.00
2018-02-21T02:31:28.528Z,75.10
2018-02-21T02:33:56.097Z,75.30
2018-02-21T02:36:24.458Z,75.40
2018-02-21T02:39:04.469Z,74.90
2018-02-21T02:41:32.044Z,74.90
2018-02-21T02:44:00.344Z,74.70
2018-02-21T02:46:27.926Z,74.60
2018-02-21T02:48:55.499Z,74.90
2018-02-21T02:51:23.045Z,75.10
2018-02-21T02:53:50.624Z,75.40
2018-02-21T02:56:18.188Z,75.40
2018-02-21T02:58:46.798Z,75.90
2018-02-21T03:01:14.345Z,76.00
2018-02-21T03:03:41.904Z,76.10
2018-02-21T03:06:09.457Z,76.00
2018-02-21T03:08:38.017Z,76.10
2018-02-21T03:11:05.570Z,75.80
2018-02-21T03:13:33.134Z,75.80
2018-02-21T03:16:00.683Z,75.60
2018-02-21T03:18:29.023Z,76.20
2018-02-21T03:20:56.572Z,76.20
2018-02-21T03:23:24.459Z,76.20
2018-02-21T03:25:52.769Z,76.30
2018-02-21T03:28:20.311Z,76.10
2018-02-21T03:30:48.019Z,76.10
2018-02-21T03:33:15.958Z,75.90
2018-02-21T03:35:43.511Z,75.70
2018-02-21T03:38:11.088Z,75.50
2018-02-21T03:40:38.634Z,75.40
2018-02-21T03:43:06.523Z,75.00
2018-02-21T03:45:34.103Z,74.80
2018-02-21T03:48:02.416Z,74.90
2018-02-21T03:50:30.017Z,74.90
2018-02-21T03:52:58.322Z,75.20
2018-02-21T03:55:26.196Z,75.10
2018-02-21T03:57:53.734Z,76.30
2018-02-21T04:00:21.635Z,76.20
2018-02-21T04:02:50.960Z,76.20
2018-02-21T04:05:18.866Z,76.20
2018-02-21T04:07:47.676Z,76.50
2018-02-21T04:10:15.857Z,76.60
2018-02-21T04:12:43.400Z,76.70
2018-02-21T04:15:11.001Z,76.90
2018-02-21T04:17:38.558Z,76.90
2018-02-21T04:20:06.469Z,76.50
2018-02-21T04:22:35.730Z,76.20
2018-02-21T04:25:03.303Z,76.20
2018-02-21T04:27:31.644Z,76.60
2018-02-21T04:29:59.221Z,76.60
2018-02-21T04:32:27.715Z,76.70
2018-02-21T04:34:55.315Z,76.80
2018-02-21T04:37:22.884Z,76.80
2018-02-21T04:39:50.448Z,77.10
2018-02-21T04:42:18.203Z,76.70
2018-02-21T04:44:47.823Z,76.50
2018-02-21T04:47:15.884Z,76.20
2018-02-21T04:49:44.226Z,76.30
2018-02-21T04:52:12.225Z,76.20
2018-02-21T04:58:03.738Z,76.20
2018-02-21T05:00:31.292Z,75.80
2018-02-21T05:02:58.886Z,75.60
2018-02-21T05:05:27.430Z,75.70
2018-02-21T05:07:55.055Z,77.00
2018-02-21T05:10:22.609Z,76.90
2018-02-21T05:12:50.133Z,76.90
2018-02-21T05:15:18.222Z,76.90
2018-02-21T05:17:48.299Z,76.50
2018-02-21T05:20:16.534Z,76.50
2018-02-21T05:22:44.098Z,76.10
2018-02-21T05:25:11.645Z,75.60
2018-02-21T05:27:39.178Z,75.70
2018-02-21T05:30:06.776Z,74.90
2018-02-21T05:32:35.834Z,74.90
2018-02-21T05:35:03.467Z,74.80
2018-02-21T05:37:31.787Z,75.10
2018-02-21T05:40:00.129Z,75.20
2018-02-21T05:42:27.730Z,75.10
2018-02-21T05:44:55.379Z,74.80
2018-02-21T05:47:23.758Z,74.70
2018-02-21T05:49:52.139Z,74.40
2018-02-21T05:52:20.763Z,74.40
2018-02-21T05:54:48.536Z,74.70
2018-02-21T05:57:16.991Z,74.20
2018-02-21T05:59:46.128Z,74.20
2018-02-21T06:02:13.849Z,74.20
2018-02-21T06:04:42.263Z,73.80
2018-02-21T06:07:10.649Z,73.20
2018-02-21T06:09:38.992Z,73.20
2018-02-21T06:12:06.610Z,73.20
2018-02-21T06:14:35.954Z,73.90
2018-02-21T06:17:03.657Z,73.90
2018-02-21T06:19:31.213Z,74.20
2018-02-21T06:21:58.797Z,74.40
2018-02-21T06:24:26.369Z,74.30
2018-02-21T06:26:54.352Z,74.20
2018-02-21T06:29:22.671Z,74.70
2018-02-21T06:31:51.274Z,74.70
2018-02-21T06:34:18.867Z,75.00
2018-02-21T06:36:48.394Z,74.90
2018-02-21T06:39:17.614Z,75.20
2018-02-21T06:41:46.851Z,74.60
2018-02-21T06:44:15.863Z,74.90
2018-02-21T06:46:44.171Z,74.60
2018-02-21T06:49:11.773Z,74.50
2018-02-21T06:51:39.333Z,75.00
2018-02-21T06:54:07.714Z,75.30
2018-02-21T06:56:38.199Z,75.30
2018-02-21T06:59:06.590Z,73.20
2018-02-21T07:01:34.132Z,73.20
2018-02-21T07:04:02.056Z,72.90
2018-02-21T07:06:30.367Z,72.30
2018-02-21T07:08:57.921Z,72.30
2018-02-21T07:11:26.479Z,71.80
2018-02-21T07:13:54.107Z,71.60
2018-02-21T07:16:21.665Z,73.20
2018-02-21T07:18:49.256Z,72.40
2018-02-21T07:21:17.651Z,72.60
2018-02-21T07:23:45.941Z,73.00
2018-02-21T07:26:13.487Z,72.80
2018-02-21T07:28:41.104Z,72.80
2018-02-21T07:31:09.582Z,72.10
2018-02-21T07:33:37.161Z,71.30
2018-02-21T07:36:05.475Z,71.00
2018-02-21T07:38:33.080Z,71.00
2018-02-21T07:41:00.651Z,70.90
2018-02-21T07:43:28.282Z,71.40
2018-02-21T07:45:55.824Z,72.40
2018-02-21T07:48:23.402Z,72.50
2018-02-21T07:50:50.941Z,72.30
2018-02-21T07:53:18.532Z,70.90
2018-02-21T07:55:47.039Z,71.00
2018-02-21T07:58:16.063Z,69.90
2018-02-21T08:00:43.698Z,69.90
2018-02-21T08:03:11.301Z,70.10
2018-02-21T08:05:39.610Z,69.90
2018-02-21T08:08:07.224Z,70.10
2018-02-21T08:10:35.730Z,70.00
2018-02-21T08:13:03.395Z,68.40
2018-02-21T08:15:30.947Z,69.80
2018-02-21T08:17:58.496Z,69.40
2018-02-21T08:20:26.097Z,68.80
2018-02-21T08:22:53.766Z,68.70
2018-02-21T08:25:21.388Z,69.50
2018-02-21T08:27:48.971Z,70.00
2018-02-21T08:30:17.100Z,69.50
2018-02-21T08:32:44.677Z,68.40
2018-02-21T08:35:13.154Z,68.20
2018-02-21T08:37:40.738Z,68.60
2018-02-21T08:40:08.348Z,67.20
2018-02-21T08:42:37.649Z,66.70
2018-02-21T08:45:05.960Z,66.70
2018-02-21T08:47:33.612Z,66.70
2018-02-21T08:50:01.150Z,67.40
2018-02-21T08:52:29.480Z,67.50
2018-02-21T08:54:57.799Z,67.20
2018-02-21T08:57:26.162Z,66.60
2018-02-21T08:59:53.907Z,66.40
2018-02-21T09:02:21.502Z,66.20
2018-02-21T09:04:50.053Z,63.20
2018-02-21T09:07:18.939Z,63.40
2018-02-21T09:09:46.938Z,63.50
2018-02-21T09:12:16.015Z,62.80
2018-02-21T09:14:43.592Z,62.80
2018-02-21T09:17:11.185Z,62.90
2018-02-21T09:19:38.768Z,63.40
2018-02-21T09:22:06.379Z,64.20
2018-02-21T09:24:33.941Z,64.70
2018-02-21T09:27:01.529Z,64.00
2018-02-21T09:29:29.939Z,64.00
2018-02-21T09:31:57.525Z,63.70
2018-02-21T09:34:25.094Z,63.80
2018-02-21T09:36:52.721Z,63.70
2018-02-21T09:39:20.301Z,62.50
2018-02-21T09:41:48.705Z,62.60
2018-02-21T09:44:16.820Z,62.00
2018-02-21T09:46:46.130Z,61.60
2018-02-21T09:49:13.792Z,62.30
2018-02-21T09:51:41.388Z,62.00
2018-02-21T09:54:08.996Z,59.80
2018-02-21T09:56:36.574Z,60.60
2018-02-21T09:59:04.135Z,60.60
2018-02-21T10:01:31.705Z,60.30
2018-02-21T10:03:59.271Z,61.90
2018-02-21T10:06:26.863Z,62.00
2018-02-21T10:08:54.406Z,62.10
2018-02-21T10:11:22.756Z,59.20
2018-02-21T10:13:50.328Z,59.30
2018-02-21T10:16:19.662Z,57.70
2018-02-21T10:18:47.962Z,57.70
2018-02-21T10:21:15.899Z,58.40
2018-02-21T10:23:43.506Z,58.10
2018-02-21T10:26:11.090Z,58.30
2018-02-21T10:28:38.667Z,57.20
2018-02-21T10:31:06.307Z,58.30
2018-02-21T10:33:34.640Z,57.80
2018-02-21T10:36:03.226Z,57.80
2018-02-21T10:38:30.786Z,57.20
2018-02-21T10:40:59.175Z,58.20
2018-02-21T10:43:26.744Z,58.10
2018-02-21T10:45:54.304Z,58.50
2018-02-21T10:48:21.879Z,58.30
2018-02-21T10:50:50.244Z,59.40
2018-02-21T10:53:19.545Z,58.50
2018-02-21T10:55:47.976Z,58.60
2018-02-21T10:58:16.483Z,58.40
2018-02-21T11:00:49.640Z,59.70
2018-02-21T11:03:18.100Z,59.40
2018-02-21T11:05:48.355Z,58.00
2018-02-21T11:08:16.712Z,58.00
2018-02-21T11:10:46.899Z,57.40
2018-02-21T11:13:14.485Z,56.80
2018-02-21T11:15:42.040Z,54.60
2018-02-21T11:18:10.563Z,52.70
2018-02-21T11:20:38.108Z,50.80
2018-02-21T11:23:05.727Z,49.30
2018-02-21T11:25:34.079Z,49.80
2018-02-21T11:28:01.647Z,49.70
2018-02-21T11:30:29.226Z,50.20
2018-02-21T11:32:56.869Z,51.30
2018-02-21T11:35:24.439Z,53.00
2018-02-21T11:37:52.842Z,54.50
2018-02-21T11:40:21.203Z,55.40
2018-02-21T11:42:49.554Z,55.00
2018-02-21T11:45:17.889Z,55.00
2018-02-21T11:47:45.782Z,55.20
2018-02-21T11:50:13.417Z,55.20
2018-02-21T11:52:41.121Z,54.60
2018-02-21T11:55:08.707Z,54.20
2018-02-21T11:57:36.431Z,55.30
2018-02-21T12:00:04.068Z,54.10
2018-02-21T12:02:31.730Z,53.90
2018-02-21T12:04:59.361Z,55.00
2018-02-21T12:07:27.771Z,55.90
2018-02-21T12:09:55.427Z,55.80
2018-02-21T12:12:24.018Z,56.60
2018-02-21T12:14:51.710Z,56.20
2018-02-21T12:17:19.394Z,55.60
2018-02-21T12:19:47.869Z,56.20
2018-02-21T12:22:22.337Z,57.10
2018-02-21T12:24:52.570Z,56.20
2018-02-21T12:27:20.190Z,56.20
2018-02-21T12:29:48.514Z,56.50
2018-02-21T12:32:17.497Z,56.60
2018-02-21T12:34:45.141Z,56.50
2018-02-21T12:37:12.724Z,56.50
2018-02-21T12:39:41.048Z,55.60
2018-02-21T12:42:09.895Z,55.60
2018-02-21T12:44:37.436Z,56.20
2018-02-21T12:47:05.106Z,57.50
2018-02-21T12:49:32.642Z,57.90
2018-02-21T12:52:00.241Z,58.70
2018-02-21T12:54:28.549Z,57.60
2018-02-21T12:56:57.347Z,58.80
2018-02-21T12:59:25.677Z,59.00
2018-02-21T13:01:53.311Z,59.00
2018-02-21T13:04:20.886Z,57.90
2018-02-21T13:06:49.345Z,59.10
2018-02-21T13:09:17.832Z,59.10
2018-02-21T13:11:46.167Z,59.80
2018-02-21T13:14:13.794Z,61.10
2018-02-21T13:16:42.135Z,59.90
2018-02-21T13:19:10.683Z,59.70
2018-02-21T13:21:38.266Z,59.20
2018-02-21T13:24:05.837Z,59.20
2018-02-21T13:26:34.351Z,59.10
2018-02-21T13:29:01.892Z,57.40
2018-02-21T13:31:29.485Z,58.50
2018-02-21T13:33:57.066Z,56.50
2018-02-21T13:36:24.603Z,55.50
2018-02-21T13:38:52.175Z,56.60
2018-02-21T13:41:19.788Z,55.30
2018-02-21T13:43:48.243Z,55.00
2018-02-21T13:46:16.695Z,55.10
2018-02-21T13:48:44.263Z,55.40
2018-02-21T13:51:12.720Z,57.40
2018-02-21T13:53:40.329Z,56.00
2018-02-21T13:56:08.668Z,54.90
2018-02-21T13:58:37.978Z,55.10
2018-02-21T14:01:06.366Z,55.60
2018-02-21T14:03:33.931Z,55.70
2018-02-21T14:06:01.520Z,54.90
2018-02-21T14:08:30.193Z,56.00
2018-02-21T14:10:58.502Z,56.80
2018-02-21T14:13:26.047Z,56.80
2018-02-21T14:15:53.898Z,57.10
2018-02-21T14:18:23.414Z,56.60
2018-02-21T14:20:50.983Z,56.10
2018-02-21T14:23:18.590Z,57.10
2018-02-21T14:25:46.861Z,57.20
2018-02-21T14:28:15.853Z,57.20
2018-02-21T14:30:43.509Z,57.30
2018-02-21T14:33:11.088Z,56.80
2018-02-21T14:35:39.660Z,57.60
2018-02-21T14:38:07.244Z,59.50
2018-02-21T14:40:34.785Z,60.20
2018-02-21T14:43:02.351Z,60.10
2018-02-21T14:45:30.821Z,59.30
2018-02-21T14:47:58.377Z,59.80
2018-02-21T14:50:26.718Z,60.50
2018-02-21T14:52:54.304Z,60.50
2018-02-21T14:55:22.663Z,59.00
2018-02-21T14:57:50.235Z,59.00
2018-02-21T15:00:19.009Z,59.40
2018-02-21T15:02:47.294Z,59.50
2018-02-21T15:05:14.922Z,59.70
2018-02-21T15:07:42.553Z,59.90
2018-02-21T15:10:10.174Z,60.30
2018-02-21T15:12:37.735Z,60.00
2018-02-21T15:15:06.264Z,59.90
2018-02-21T15:17:34.577Z,58.90
2018-02-21T15:20:04.118Z,59.00
2018-02-21T15:22:32.439Z,59.30
2018-02-21T15:25:00.624Z,59.30
2018-02-21T15:27:28.959Z,58.10
2018-02-21T15:29:56.568Z,58.10
2018-02-21T15:32:25.090Z,57.90
2018-02-21T15:34:54.220Z,58.40
2018-02-21T15:37:22.540Z,58.50
2018-02-21T15:39:51.692Z,58.80
2018-02-21T15:42:21.249Z,58.80
2018-02-21T15:44:51.684Z,58.70
2018-02-21T15:47:24.487Z,58.30
2018-02-21T15:49:55.212Z,59.00
2018-02-21T15:52:23.378Z,58.90
2018-02-21T15:54:51.203Z,60.00
2018-02-21T15:57:18.780Z,59.60
2018-02-21T15:59:46.958Z,59.60
2018-02-21T16:02:18.371Z,60.50
2018-02-21T16:04:46.784Z,60.60
2018-02-21T16:07:15.155Z,60.50
2018-02-21T16:09:44.332Z,60.50
2018-02-21T16:12:12.687Z,59.90
2018-02-21T16:14:40.257Z,59.90
2018-02-21T16:17:09.594Z,60.10
2018-02-21T16:19:37.238Z,60.10
2018-02-21T16:22:04.837Z,59.50
2018-02-21T16:24:32.427Z,59.70
2018-02-21T16:27:00.126Z,60.00
2018-02-21T16:29:27.750Z,59.90
2018-02-21T16:31:55.372Z,60.40
2018-02-21T16:34:22.940Z,60.00
2018-02-21T16:36:50.660Z,59.90
2018-02-21T16:39:18.980Z,60.00
2018-02-21T16:41:46.861Z,60.00
2018-02-21T16:44:14.474Z,60.70
2018-02-21T16:46:42.048Z,60.40
2018-02-21T16:49:09.658Z,60.50
2018-02-21T16:51:38.184Z,60.60
2018-02-21T16:54:11.336Z,60.30
2018-02-21T16:56:38.912Z,61.20
2018-02-21T16:59:07.642Z,60.80
2018-02-21T17:01:35.978Z,60.70
2018-02-21T17:04:03.720Z,60.70
2018-02-21T17:06:31.341Z,60.30
2018-02-21T17:08:59.289Z,60.70
2018-02-21T17:11:27.641Z,59.30
2018-02-21T17:13:55.284Z,59.30
2018-02-21T17:16:23.704Z,59.40
2018-02-21T17:18:51.350Z,59.40
2018-02-21T17:21:19.057Z,59.90
2018-02-21T17:23:47.710Z,59.40
2018-02-21T17:26:16.802Z,59.30
2018-02-21T17:28:46.997Z,59.00
2018-02-21T17:31:18.063Z,59.20
2018-02-21T17:33:46.928Z,60.00
2018-02-21T17:36:14.553Z,60.40
2018-02-21T17:38:42.972Z,59.60
2018-02-21T17:41:16.749Z,59.50
2018-02-21T17:43:45.714Z,59.70
2018-02-21T17:46:13.333Z,59.50
2018-02-21T17:48:41.018Z,60.60
2018-02-21T17:51:09.411Z,59.90
2018-02-21T17:53:36.992Z,59.60
2018-02-21T17:56:05.534Z,59.10
2018-02-21T17:58:33.109Z,58.90
2018-02-21T18:01:01.644Z,58.90
2018-02-21T18:03:29.223Z,58.90
2018-02-21T18:05:56.832Z,58.80
2018-02-21T18:08:27.129Z,59.60
2018-02-21T18:10:54.770Z,59.60
2018-02-21T18:13:22.340Z,59.60
2018-02-21T18:15:50.750Z,60.10
2018-02-21T18:18:18.344Z,60.10
2018-02-21T18:20:47.608Z,60.00
2018-02-21T18:23:16.437Z,60.00
2018-02-21T18:25:44.060Z,60.00
2018-02-21T18:28:11.639Z,60.00
2018-02-21T18:30:40.249Z,58.70
2018-02-21T18:33:07.852Z,58.90
2018-02-21T18:35:35.454Z,59.90
2018-02-21T18:38:03.028Z,60.50
2018-02-21T18:40:30.625Z,59.90
2018-02-21T18:42:58.207Z,60.30
2018-02-21T18:45:25.881Z,60.40
2018-02-21T18:47:56.172Z,60.50
2018-02-21T18:50:23.837Z,60.30
2018-02-21T18:52:51.454Z,60.00
2018-02-21T18:55:19.076Z,60.20
2018-02-21T18:57:47.401Z,60.30
2018-02-21T19:00:18.474Z,59.80
2018-02-21T19:02:46.816Z,60.40
2018-02-21T19:05:14.468Z,61.30
2018-02-21T19:07:42.103Z,60.80
2018-02-21T19:10:09.707Z,61.10
2018-02-21T19:12:40.880Z,61.30
2018-02-21T19:15:08.438Z,60.60
2018-02-21T19:17:36.060Z,60.30
2018-02-21T19:20:03.659Z,60.60
2018-02-21T19:22:32.036Z,61.70
2018-02-21T19:25:00.377Z,62.80
2018-02-21T19:27:27.987Z,62.80
2018-02-21T19:29:55.729Z,62.70
2018-02-21T19:32:23.325Z,62.50
2018-02-21T19:34:50.921Z,62.60
2018-02-21T19:37:23.778Z,62.70
2018-02-21T19:39:52.318Z,62.80
2018-02-21T19:42:23.953Z,62.80
2018-02-21T19:44:52.304Z,62.70
2018-02-21T19:47:22.660Z,62.80
2018-02-21T19:49:50.915Z,63.50
2018-02-21T19:52:19.460Z,63.90
2018-02-21T19:54:48.229Z,64.00
2018-02-21T19:57:16.437Z,63.80
2018-02-21T19:59:44.074Z,63.80
2018-02-21T20:02:12.486Z,63.20
2018-02-21T20:04:43.575Z,63.30
2018-02-21T20:07:11.485Z,63.50
2018-02-21T20:09:40.289Z,63.10
2018-02-21T20:12:07.875Z,63.70
2018-02-21T20:14:35.479Z,63.10
2018-02-21T20:17:03.945Z,63.40
2018-02-21T20:19:32.326Z,63.20
2018-02-21T20:22:00.747Z,63.50
2018-02-21T20:24:28.680Z,63.40
2018-02-21T20:26:56.624Z,63.90
2018-02-21T20:29:24.293Z,63.80
2018-02-21T20:31:51.943Z,63.90
2018-02-21T20:34:20.330Z,64.80
2018-02-21T20:36:48.865Z,64.80
2018-02-21T20:39:18.097Z,65.30
2018-02-21T20:41:47.834Z,65.30
2018-02-21T20:44:17.146Z,65.30
2018-02-21T20:46:46.600Z,65.30
2018-02-21T20:49:14.164Z,65.30
2018-02-21T20:51:41.808Z,65.40
2018-02-21T20:54:10.106Z,65.00
2018-02-21T20:56:39.034Z,65.40
2018-02-21T20:59:11.798Z,65.60
2018-02-21T21:01:39.628Z,65.60
2018-02-21T21:04:12.864Z,66.00
2018-02-21T21:06:41.228Z,66.30
2018-02-21T21:09:09.566Z,66.50
2018-02-21T21:11:37.182Z,66.50
2018-02-21T21:14:04.768Z,66.20
2018-02-21T21:19:24.984Z,66.20
2018-02-21T21:21:52.576Z,66.40
2018-02-21T21:24:25.405Z,66.50
2018-02-21T21:26:53.750Z,67.30
2018-02-21T21:29:21.323Z,67.30
2018-02-21T21:31:49.842Z,68.00
2018-02-21T21:34:19.267Z,68.20
2018-02-21T21:36:47.765Z,68.30
2018-02-21T21:39:19.043Z,68.70
2018-02-21T21:41:47.005Z,68.80
2018-02-21T21:44:14.564Z,69.00
2018-02-21T21:46:43.117Z,68.60
2018-02-21T21:49:11.461Z,68.90
2018-02-21T21:51:39.065Z,68.90
2018-02-21T21:54:06.656Z,69.20
2018-02-21T21:56:34.247Z,69.20
2018-02-21T21:59:01.793Z,69.50
2018-02-21T22:01:30.191Z,69.70
2018-02-21T22:03:57.760Z,69.70
2018-02-21T22:06:25.363Z,69.90
2018-02-21T22:08:53.675Z,70.20
2018-02-21T22:11:21.303Z,70.20
2018-02-21T22:13:48.917Z,70.40
2018-02-21T22:16:18.145Z,71.00
2018-02-21T22:18:46.998Z,71.00
2018-02-21T22:21:14.587Z,70.70
2018-02-21T22:23:43.098Z,70.60
2018-02-21T22:26:11.405Z,70.60
2018-02-21T22:28:39.821Z,70.50
2018-02-21T22:31:07.430Z,70.60
2018-02-21T22:33:35.042Z,70.30
2018-02-21T22:36:03.368Z,70.10
2018-02-21T22:38:30.993Z,70.00
2018-02-21T22:40:59.604Z,70.20
2018-02-21T22:43:27.184Z,70.00
2018-02-21T22:45:56.072Z,69.70
2018-02-21T22:48:23.627Z,69.80
2018-02-21T22:50:51.241Z,70.00
2018-02-21T22:53:18.778Z,70.40
2018-02-21T22:55:47.679Z,70.40
2018-02-21T22:58:17.010Z,70.60
2018-02-21T23:00:44.595Z,71.00
2018-02-21T23:03:14.218Z,71.20
2018-02-21T23:05:42.797Z,70.90
2018-02-21T23:08:10.388Z,71.60
2018-02-21T23:10:37.946Z,72.00
2018-02-21T23:13:05.513Z,72.30
2018-02-21T23:15:33.856Z,72.30
2018-02-21T23:18:01.445Z,72.40
2018-02-21T23:20:29.796Z,72.20
2018-02-21T23:22:57.365Z,72.10
2018-02-21T23:25:25.872Z,72.30
2018-02-21T23:27:53.422Z,72.60
2018-02-21T23:30:22.956Z,73.40
2018-02-21T23:32:52.243Z,72.80
2018-02-21T23:35:20.641Z,72.50
2018-02-21T23:37:48.950Z,72.30
2018-02-21T23:40:16.920Z,72.30
2018-02-21T23:42:45.921Z,72.20
2018-02-21T23:45:13.525Z,72.10
2018-02-21T23:47:41.902Z,72.00
2018-02-21T23:50:09.664Z,72.30
2018-02-21T23:52:38.220Z,72.20
2018-02-21T23:55:05.773Z,72.00
2018-02-21T23:57:33.350Z,71.80
